Time;durP1;ratioP1;P1;durP2;ratioP2;P2;SDS_P1;SDS_P2;PMS_P1;PMS_P2;Temp;Humidity;BMP_temperature;BMP_pressure;BME280_temperature;BME280_humidity;BME280_pressure;Samples;Min_cycle;Max_cycle;Signal;HPM_P1;HPM_P2
2024/02/25 00:01:24;;;;;;;8.43;5.00;;;1.10;1.00;;;;;;6075429;23;20090;-79
2024/02/25 00:04:13;;;;;;;9.18;5.45;;;1.10;1.00;;;;;;6057939;23;20041;-81
2024/02/25 00:07:00;;;;;;;7.95;5.20;;;1.10;1.00;;;;;;6050754;23;20090;-79
2024/02/25 00:09:48;;;;;;;8.38;5.00;;;1.00;1.00;;;;;;6085396;23;20043;-80
2024/02/25 00:12:36;;;;;;;7.45;4.57;;;0.90;10.70;;;;;;6086535;23;20035;-80
2024/02/25 00:15:24;;;;;;;6.00;4.18;;;0.90;59.20;;;;;;6061555;23;20038;-82
2024/02/25 00:18:12;;;;;;;8.23;5.25;;;0.90;99.90;;;;;;6074592;23;20027;-79
2024/02/25 00:21:00;;;;;;;5.20;4.57;;;1.00;99.90;;;;;;6067970;23;20027;-81
2024/02/25 00:23:48;;;;;;;7.07;4.22;;;1.00;99.90;;;;;;6058985;23;20023;-80
2024/02/25 00:26:36;;;;;;;7.55;4.72;;;1.00;99.90;;;;;;6058367;23;20027;-80
2024/02/25 00:29:24;;;;;;;6.72;5.10;;;1.20;99.90;;;;;;6059141;23;20058;-82
2024/02/25 00:32:15;;;;;;;5.70;4.45;;;1.20;99.90;;;;;;6060361;23;20121;-79
2024/02/25 00:35:02;;;;;;;6.72;4.65;;;1.20;99.90;;;;;;6038177;23;20030;-80
2024/02/25 00:37:51;;;;;;;7.18;4.63;;;1.20;99.90;;;;;;6058837;23;20038;-81
2024/02/25 00:40:38;;;;;;;7.15;5.07;;;1.10;99.90;;;;;;6059606;23;20027;-82
2024/02/25 00:43:45;;;;;;;9.40;5.35;;;1.00;99.90;;;;;;6058687;23;20541;-79
2024/02/25 00:46:33;;;;;;;11.63;6.85;;;0.90;99.90;;;;;;6058592;23;20142;-80
2024/02/25 00:49:22;;;;;;;12.63;6.97;;;0.80;99.90;;;;;;6057411;23;20040;-79
2024/02/25 00:52:09;;;;;;;9.98;6.65;;;0.70;99.90;;;;;;6059750;23;20023;-80
2024/02/25 00:54:57;;;;;;;7.25;5.60;;;0.70;1.00;;;;;;6059242;23;20035;-80
2024/02/25 00:57:46;;;;;;;11.52;6.07;;;0.60;1.00;;;;;;6050652;23;20030;-81
2024/02/25 01:00:33;;;;;;;12.13;7.18;;;0.70;1.00;;;;;;6059795;23;20019;-82
2024/02/25 01:03:24;;;;;;;7.90;6.47;;;0.50;1.00;;;;;;6055115;23;20085;-79
2024/02/25 01:06:12;;;;;;;10.05;6.53;;;0.50;14.00;;;;;;6075014;23;20026;-80
2024/02/25 01:09:00;;;;;;;8.20;5.97;;;0.50;99.90;;;;;;6069617;23;20050;-79
2024/02/25 01:11:48;;;;;;;6.68;5.50;;;0.60;99.90;;;;;;6061011;23;20035;-81
2024/02/25 01:14:38;;;;;;;7.05;5.50;;;0.80;99.90;;;;;;6073405;23;20033;-79
2024/02/25 01:17:26;;;;;;;10.00;6.22;;;0.80;99.90;;;;;;6070373;23;20125;-78
2024/02/25 01:20:13;;;;;;;8.02;5.20;;;0.80;99.90;;;;;;6068717;23;20023;-80
2024/02/25 01:23:01;;;;;;;9.80;5.35;;;0.80;99.90;;;;;;6045787;23;20466;-79
2024/02/25 01:25:51;;;;;;;6.32;4.78;;;0.60;99.90;;;;;;6071105;23;20351;-79
2024/02/25 01:28:39;;;;;;;7.65;5.68;;;0.60;99.90;;;;;;6051518;23;20026;-81
2024/02/25 01:31:27;;;;;;;8.40;5.35;;;0.50;99.90;;;;;;6049167;23;20113;-78
2024/02/25 01:34:15;;;;;;;8.60;5.50;;;0.50;1.00;;;;;;6072556;23;20011;-79
2024/02/25 01:37:04;;;;;;;8.25;5.32;;;0.60;1.00;;;;;;6079720;23;20046;-79
2024/02/25 01:39:52;;;;;;;7.28;5.18;;;0.60;18.90;;;;;;6069816;23;20062;-80
2024/02/25 01:42:39;;;;;;;7.80;5.25;;;0.60;1.00;;;;;;6066365;23;20041;-76
2024/02/25 01:45:27;;;;;;;7.95;5.60;;;0.60;71.40;;;;;;6070135;23;20069;-83
2024/02/25 01:48:22;;;;;;;11.63;5.43;;;0.50;62.00;;;;;;6056597;23;20033;-79
2024/02/25 01:51:11;;;;;;;6.93;4.85;;;0.30;7.60;;;;;;6054158;23;20037;-79
2024/02/25 01:53:59;;;;;;;7.65;5.00;;;0.20;73.10;;;;;;6058297;23;20037;-80
2024/02/25 01:56:46;;;;;;;8.20;4.75;;;0.30;99.90;;;;;;6068322;23;20038;-77
2024/02/25 01:59:34;;;;;;;7.55;4.75;;;0.40;99.90;;;;;;6079999;23;20031;-78
2024/02/25 02:02:22;;;;;;;7.85;4.88;;;0.50;1.00;;;;;;6058777;23;20019;-79
2024/02/25 02:05:13;;;;;;;6.30;4.70;;;0.60;58.70;;;;;;6077589;23;20086;-78
2024/02/25 02:08:03;;;;;;;8.93;5.35;;;0.50;1.00;;;;;;6076066;23;20053;-78
2024/02/25 02:10:50;;;;;;;8.13;5.22;;;0.50;1.00;;;;;;6066754;23;20026;-80
2024/02/25 02:13:40;;;;;;;7.35;6.05;;;0.40;99.90;;;;;;6063826;23;20027;-80
2024/02/25 02:16:27;;;;;;;10.48;5.95;;;0.40;1.00;;;;;;6062344;23;20107;-81
2024/02/25 02:19:14;;;;;;;9.60;6.45;;;0.30;99.90;;;;;;6041286;23;20102;-81
2024/02/25 02:22:02;;;;;;;10.02;6.00;;;0.20;1.00;;;;;;6051655;23;20395;-80
2024/02/25 02:24:50;;;;;;;16.23;7.60;;;0.20;1.00;;;;;;6042855;23;20023;-83
2024/02/25 02:27:39;;;;;;;11.25;6.50;;;0.10;1.00;;;;;;6066692;23;20023;-77
2024/02/25 02:30:27;;;;;;;11.90;6.75;;;0.00;1.00;;;;;;6071403;23;20117;-82
2024/02/25 02:33:15;;;;;;;9.38;5.63;;;-0.10;1.00;;;;;;6070174;23;20034;-80
2024/02/25 02:36:03;;;;;;;10.90;5.55;;;-0.30;99.90;;;;;;6062550;23;20045;-81
2024/02/25 02:38:53;;;;;;;12.07;6.03;;;-0.30;99.90;;;;;;6068187;23;20346;-79
2024/02/25 02:41:43;;;;;;;7.20;5.05;;;-0.30;18.60;;;;;;6059538;23;20038;-82
2024/02/25 02:44:30;;;;;;;9.13;5.45;;;0.00;99.90;;;;;;6058957;23;20474;-79
2024/02/25 02:47:20;;;;;;;6.22;4.75;;;0.10;99.90;;;;;;6056726;23;20323;-81
2024/02/25 02:50:10;;;;;;;7.95;4.93;;;0.00;94.50;;;;;;6036867;23;20406;-82
2024/02/25 02:53:00;;;;;;;8.35;5.43;;;0.10;99.90;;;;;;6057469;23;20046;-82
2024/02/25 02:55:48;;;;;;;5.65;4.18;;;0.10;99.90;;;;;;6058612;23;20034;-83
2024/02/25 02:58:36;;;;;;;6.53;4.50;;;0.10;94.30;;;;;;6056848;23;20542;-77
2024/02/25 03:01:24;;;;;;;6.40;4.25;;;0.10;1.00;;;;;;6062267;23;20041;-78
2024/02/25 03:04:12;;;;;;;4.57;3.63;;;0.20;99.90;;;;;;6051522;23;20023;-78
2024/02/25 03:06:59;;;;;;;6.22;3.80;;;0.50;99.90;;;;;;6057613;23;20034;-82
2024/02/25 03:09:47;;;;;;;6.18;3.70;;;0.80;99.90;;;;;;6058348;23;20058;-81
2024/02/25 03:12:35;;;;;;;7.80;3.60;;;1.00;99.90;;;;;;6047529;23;20355;-82
2024/02/25 03:15:23;;;;;;;4.50;3.00;;;1.00;1.00;;;;;;6064383;23;20481;-81
2024/02/25 03:18:13;;;;;;;4.40;3.10;;;1.10;99.90;;;;;;6057864;23;20027;-78
2024/02/25 03:21:03;;;;;;;7.13;3.80;;;1.00;99.90;;;;;;6046078;23;20407;-80
2024/02/25 03:23:50;;;;;;;3.90;3.30;;;0.90;99.90;;;;;;6057322;23;20031;-82
2024/02/25 03:26:38;;;;;;;3.90;3.50;;;0.80;1.00;;;;;;6058999;23;20031;-81
2024/02/25 03:29:26;;;;;;;6.68;3.42;;;0.60;1.00;;;;;;6054731;23;20567;-81
2024/02/25 03:32:14;;;;;;;3.65;2.95;;;0.70;1.00;;;;;;6057649;23;20033;-81
2024/02/25 03:35:02;;;;;;;5.50;3.30;;;0.80;1.00;;;;;;6058666;23;20027;-81
2024/02/25 03:37:54;;;;;;;4.63;3.42;;;0.70;1.00;;;;;;6037296;23;20026;-81
2024/02/25 03:40:45;;;;;;;5.82;3.85;;;0.70;99.90;;;;;;6058071;23;20026;-81
2024/02/25 03:43:32;;;;;;;4.43;4.00;;;0.70;99.90;;;;;;6058841;23;20038;-82
2024/02/25 03:46:20;;;;;;;5.40;3.55;;;0.80;99.90;;;;;;6060650;23;20031;-77
2024/02/25 03:49:09;;;;;;;5.38;3.78;;;0.90;99.90;;;;;;6057794;23;20046;-81
2024/02/25 03:51:56;;;;;;;4.50;3.90;;;0.90;99.90;;;;;;6068457;23;20031;-80
2024/02/25 03:54:47;;;;;;;5.25;3.55;;;0.80;99.90;;;;;;6060340;23;20524;-80
2024/02/25 03:57:34;;;;;;;4.28;3.65;;;0.80;99.90;;;;;;6067462;23;20023;-78
2024/02/25 04:00:23;;;;;;;3.85;3.42;;;0.80;99.90;;;;;;6067463;23;20058;-80
2024/02/25 04:03:12;;;;;;;5.50;3.65;;;0.80;99.90;;;;;;6036590;23;20106;-82
2024/02/25 04:06:00;;;;;;;5.28;3.80;;;0.90;72.40;;;;;;6062094;23;20493;-79
2024/02/25 04:08:50;;;;;;;4.93;3.65;;;0.80;7.30;;;;;;6057269;23;20035;-80
2024/02/25 04:11:38;;;;;;;4.20;3.70;;;0.80;1.00;;;;;;6060217;23;20031;-79
2024/02/25 04:14:26;;;;;;;5.88;3.70;;;0.80;1.00;;;;;;6058494;23;20023;-79
2024/02/25 04:17:14;;;;;;;4.97;3.88;;;0.80;1.00;;;;;;6056804;23;20023;-81
2024/02/25 04:20:01;;;;;;;5.75;3.60;;;0.70;1.00;;;;;;6039460;23;20031;-83
2024/02/25 04:22:49;;;;;;;3.97;3.50;;;0.60;1.00;;;;;;6058616;23;20437;-79
2024/02/25 04:25:36;;;;;;;4.65;3.42;;;0.50;1.00;;;;;;6061127;23;20133;-80
2024/02/25 04:28:24;;;;;;;5.60;3.75;;;0.40;1.00;;;;;;6068660;23;20030;-82
2024/02/25 04:31:11;;;;;;;5.70;3.85;;;0.30;1.00;;;;;;6063458;23;20091;-76
2024/02/25 04:34:00;;;;;;;4.55;3.17;;;0.30;1.00;;;;;;6057019;23;20031;-78
2024/02/25 04:36:48;;;;;;;4.95;4.00;;;0.30;1.00;;;;;;6044803;23;20045;-77
2024/02/25 04:39:39;;;;;;;5.05;3.83;;;0.20;1.00;;;;;;6067988;23;20022;-79
2024/02/25 04:42:26;;;;;;;5.28;3.67;;;0.10;1.00;;;;;;6047599;23;20466;-79
2024/02/25 04:45:14;;;;;;;3.83;3.47;;;0.00;1.00;;;;;;6070817;23;20172;-82
2024/02/25 04:48:01;;;;;;;5.57;4.03;;;0.00;1.00;;;;;;6045408;23;20027;-81
2024/02/25 04:50:50;;;;;;;7.20;3.92;;;0.00;1.00;;;;;;6034545;23;20462;-81
2024/02/25 04:53:39;;;;;;;8.05;4.70;;;0.00;30.30;;;;;;6058940;23;20023;-80
2024/02/25 04:56:28;;;;;;;4.32;3.88;;;0.10;99.90;;;;;;6057686;23;20133;-81
2024/02/25 04:59:16;;;;;;;7.20;4.25;;;0.20;99.90;;;;;;6058406;23;20470;-81
2024/02/25 05:02:04;;;;;;;7.63;4.32;;;0.20;99.90;;;;;;6037525;23;20030;-81
2024/02/25 05:04:51;;;;;;;7.45;4.60;;;0.30;99.90;;;;;;6059465;23;20350;-82
2024/02/25 05:07:39;;;;;;;6.65;4.40;;;0.30;99.90;;;;;;6060282;23;20031;-81
2024/02/25 05:10:27;;;;;;;7.45;4.63;;;0.20;99.90;;;;;;6070692;23;20091;-82
2024/02/25 05:13:14;;;;;;;7.28;5.00;;;0.10;99.90;;;;;;6075964;23;20538;-76
2024/02/25 05:16:06;;;;;;;7.78;4.85;;;0.10;99.90;;;;;;6065295;23;20115;-79
2024/02/25 05:18:57;;;;;;;5.82;4.63;;;0.00;99.90;;;;;;6034898;23;20027;-78
2024/02/25 05:21:45;;;;;;;8.55;4.78;;;-0.10;99.90;;;;;;6065416;23;20094;-77
2024/02/25 05:24:32;;;;;;;6.07;4.45;;;-0.10;99.90;;;;;;6068549;23;20038;-80
2024/02/25 05:27:21;;;;;;;8.88;6.53;;;-0.10;99.90;;;;;;6052048;23;20047;-81
2024/02/25 05:30:11;;;;;;;6.32;4.85;;;-0.30;99.90;;;;;;6068254;23;20031;-81
2024/02/25 05:33:01;;;;;;;7.47;5.10;;;-0.30;99.90;;;;;;6066852;23;20026;-81
2024/02/25 05:35:49;;;;;;;9.30;5.82;;;-0.50;99.90;;;;;;6058470;23;20023;-79
2024/02/25 05:38:36;;;;;;;8.85;5.78;;;-0.60;99.90;;;;;;6016884;23;20029;-80
2024/02/25 05:41:24;;;;;;;8.05;4.95;;;-0.70;99.90;;;;;;6035482;23;20027;-80
2024/02/25 05:44:11;;;;;;;7.35;5.15;;;-0.90;99.90;;;;;;6057491;23;20074;-79
2024/02/25 05:46:59;;;;;;;9.15;5.15;;;-1.00;99.90;;;;;;6055491;23;20037;-80
2024/02/25 05:49:47;;;;;;;10.23;5.13;;;-1.10;1.00;;;;;;6057175;23;20141;-81
2024/02/25 05:52:35;;;;;;;7.50;4.90;;;-1.10;1.00;;;;;;6036535;23;20031;-80
2024/02/25 05:55:22;;;;;;;5.60;3.95;;;-1.20;99.90;;;;;;6037376;23;20403;-82
2024/02/25 05:58:09;;;;;;;6.32;4.93;;;-1.20;99.90;;;;;;6056430;23;20576;-81
2024/02/25 06:00:57;;;;;;;8.50;5.03;;;-1.30;1.00;;;;;;6070647;23;20419;-80
2024/02/25 06:03:45;;;;;;;6.97;5.10;;;-1.20;1.00;;;;;;6051459;23;20582;-79
2024/02/25 06:06:35;;;;;;;7.07;5.45;;;-1.10;99.90;;;;;;6067349;23;20041;-76
2024/02/25 06:09:23;;;;;;;6.75;5.00;;;-0.50;99.90;;;;;;6047623;23;20034;-78
2024/02/25 06:12:13;;;;;;;8.10;5.47;;;-0.30;99.90;;;;;;6060900;23;20054;-78
2024/02/25 06:15:01;;;;;;;7.63;5.35;;;-0.20;99.90;;;;;;6055742;23;20027;-82
2024/02/25 06:17:49;;;;;;;11.30;5.20;;;-0.20;99.90;;;;;;6060758;23;20022;-80
2024/02/25 06:20:37;;;;;;;11.20;5.60;;;0.00;99.90;;;;;;6056663;23;20450;-79
2024/02/25 06:23:24;;;;;;;6.80;5.13;;;0.00;99.90;;;;;;6058003;23;20027;-81
2024/02/25 06:26:12;;;;;;;7.53;5.60;;;0.00;11.80;;;;;;6035449;23;20046;-82
2024/02/25 06:29:00;;;;;;;7.78;5.45;;;-0.10;99.90;;;;;;6057423;23;20038;-82
2024/02/25 06:31:47;;;;;;;9.38;6.20;;;-0.20;99.90;;;;;;6056492;23;20026;-82
2024/02/25 06:34:35;;;;;;;8.80;5.70;;;-0.20;99.90;;;;;;6036986;23;20023;-81
2024/02/25 06:37:26;;;;;;;11.23;5.93;;;-0.20;99.90;;;;;;6059987;23;20052;-80
2024/02/25 06:40:13;;;;;;;9.95;6.32;;;0.00;99.90;;;;;;6040912;23;20022;-78
2024/02/25 06:43:03;;;;;;;10.13;6.80;;;0.00;99.90;;;;;;6063745;23;20058;-81
2024/02/25 06:45:54;;;;;;;12.60;7.45;;;0.00;99.90;;;;;;6049017;23;20097;-80
2024/02/25 06:48:43;;;;;;;11.30;6.35;;;-0.10;1.00;;;;;;6038733;23;20054;-79
2024/02/25 06:51:30;;;;;;;12.45;6.90;;;-0.10;1.00;;;;;;6063293;23;20117;-79
2024/02/25 06:54:18;;;;;;;9.13;5.95;;;0.00;99.90;;;;;;6069406;23;20474;-78
2024/02/25 06:57:05;;;;;;;8.45;6.35;;;0.20;99.90;;;;;;6057617;23;20420;-79
2024/02/25 06:59:53;;;;;;;8.43;5.47;;;0.20;99.90;;;;;;6058613;23;20462;-81
2024/02/25 07:02:42;;;;;;;8.13;6.05;;;0.50;99.90;;;;;;6061153;23;20030;-80
2024/02/25 07:05:29;;;;;;;10.48;6.25;;;1.10;1.00;;;;;;6059557;23;20043;-80
2024/02/25 07:08:17;;;;;;;8.60;5.65;;;1.60;99.90;;;;;;6037963;23;20041;-80
2024/02/25 07:11:18;;;;;;;7.97;4.93;;;1.90;1.00;;;;;;6057767;23;20082;-79
2024/02/25 07:14:06;;;;;;;5.30;4.25;;;2.40;99.90;;;;;;6059460;23;20105;-79
2024/02/25 07:16:53;;;;;;;5.13;3.67;;;2.80;1.00;;;;;;6060996;23;20026;-81
2024/02/25 07:19:45;;;;;;;3.70;3.17;;;2.70;99.90;;;;;;6071795;23;20023;-78
2024/02/25 07:22:35;;;;;;;4.47;3.25;;;2.60;97.80;;;;;;6069958;23;20027;-80
2024/02/25 07:25:24;;;;;;;4.45;3.03;;;2.60;1.00;;;;;;6045343;23;20083;-80
2024/02/25 07:28:13;;;;;;;5.30;3.55;;;2.50;99.90;;;;;;6072881;23;20015;-75
2024/02/25 07:31:03;;;;;;;5.22;3.55;;;2.50;99.90;;;;;;6084347;23;20025;-76
2024/02/25 07:33:53;;;;;;;5.47;4.10;;;2.50;98.10;;;;;;6054057;23;20432;-81
2024/02/25 07:36:40;;;;;;;5.25;3.63;;;2.50;1.00;;;;;;6085166;23;20019;-79
2024/02/25 07:39:30;;;;;;;7.45;3.63;;;2.60;1.00;;;;;;6073088;23;20107;-80
2024/02/25 07:42:20;;;;;;;4.45;3.67;;;2.60;99.90;;;;;;6059757;23;20050;-75
2024/02/25 07:45:08;;;;;;;4.00;3.20;;;2.60;99.90;;;;;;6072067;23;20113;-82
2024/02/25 07:47:56;;;;;;;5.28;3.40;;;2.70;99.90;;;;;;6061621;23;20031;-82
2024/02/25 07:50:44;;;;;;;4.90;3.53;;;2.80;99.90;;;;;;6063269;23;20059;-78
2024/02/25 07:53:32;;;;;;;4.53;3.38;;;2.80;99.90;;;;;;6059816;23;20839;-79
2024/02/25 07:56:22;;;;;;;5.22;2.90;;;2.80;23.10;;;;;;6058759;23;20038;-79
2024/02/25 07:59:11;;;;;;;4.95;3.03;;;2.90;1.00;;;;;;6062189;23;20030;-80
2024/02/25 08:01:58;;;;;;;6.53;3.30;;;3.00;1.00;;;;;;6037109;23;20122;-82
2024/02/25 08:04:48;;;;;;;5.22;3.22;;;3.10;1.00;;;;;;6059141;23;20094;-81
2024/02/25 08:07:35;;;;;;;4.70;3.15;;;3.30;1.00;;;;;;6062192;23;20061;-80
2024/02/25 08:10:23;;;;;;;3.97;2.60;;;3.50;99.90;;;;;;6060159;23;20046;-82
2024/02/25 08:13:11;;;;;;;5.68;2.35;;;3.60;99.90;;;;;;6042009;23;20034;-77
2024/02/25 08:15:59;;;;;;;5.20;2.70;;;3.80;99.90;;;;;;6038543;23;20465;-80
2024/02/25 08:18:47;;;;;;;4.28;2.22;;;4.10;99.90;;;;;;6028219;23;20029;-80
2024/02/25 08:21:39;;;;;;;3.17;2.50;;;4.30;99.90;;;;;;6079301;23;20027;-79
2024/02/25 08:24:28;;;;;;;2.50;2.30;;;4.50;99.90;;;;;;6045331;23;20050;-78
2024/02/25 08:27:16;;;;;;;4.13;2.40;;;4.40;99.90;;;;;;6060155;23;20094;-77
2024/02/25 08:30:04;;;;;;;5.63;2.40;;;4.20;99.90;;;;;;6067868;23;20456;-82
2024/02/25 08:32:52;;;;;;;2.92;2.47;;;4.20;76.60;;;;;;6038948;23;20102;-81
2024/02/25 08:35:41;;;;;;;5.50;2.55;;;4.20;52.20;;;;;;6039393;23;20110;-82
2024/02/25 08:38:29;;;;;;;4.97;2.60;;;4.30;22.60;;;;;;6059525;23;20027;-81
2024/02/25 08:41:16;;;;;;;3.35;2.20;;;4.40;1.00;;;;;;6063559;23;20038;-81
2024/02/25 08:44:05;;;;;;;6.22;2.53;;;4.30;1.00;;;;;;6046148;23;20022;-80
2024/02/25 08:46:53;;;;;;;2.97;2.40;;;4.30;1.00;;;;;;6073768;23;20075;-77
2024/02/25 08:49:43;;;;;;;5.60;2.55;;;4.20;1.00;;;;;;6078770;23;20011;-78
2024/02/25 08:52:30;;;;;;;2.42;2.13;;;4.30;1.00;;;;;;6077835;23;20106;-80
2024/02/25 08:55:21;;;;;;;2.58;2.20;;;4.40;1.00;;;;;;6039834;23;20457;-81
2024/02/25 08:58:09;;;;;;;3.08;2.17;;;4.50;1.00;;;;;;6065031;23;20045;-80
2024/02/25 09:00:57;;;;;;;5.47;2.40;;;4.50;1.00;;;;;;6062907;23;20034;-82
2024/02/25 09:03:46;;;;;;;3.85;2.05;;;4.60;1.00;;;;;;6075444;23;20027;-80
2024/02/25 09:06:39;;;;;;;2.88;2.40;;;4.60;1.00;;;;;;6062306;23;20474;-80
2024/02/25 09:09:31;;;;;;;4.22;2.60;;;4.60;1.00;;;;;;6059432;23;20022;-76
2024/02/25 09:12:19;;;;;;;;;;;4.70;1.00;;;;;;6025187;23;20094;-77
2024/02/25 09:15:08;;;;;;;3.72;1.90;;;4.80;1.00;;;;;;6033252;23;20269;-81
2024/02/25 09:17:58;;;;;;;3.83;2.58;;;4.80;1.00;;;;;;6040648;23;20023;-80
2024/02/25 09:20:50;;;;;;;4.60;2.20;;;4.90;99.90;;;;;;6041419;23;20027;-79
2024/02/25 09:23:42;;;;;;;2.65;2.30;;;5.20;99.90;;;;;;6016120;23;20027;-80
2024/02/25 09:26:29;;;;;;;2.53;1.75;;;5.70;99.90;;;;;;6031895;23;20138;-78
2024/02/25 09:29:23;;;;;;;2.50;2.00;;;6.00;99.90;;;;;;6029951;23;20038;-79
2024/02/25 09:32:15;;;;;;;3.55;2.38;;;6.10;99.90;;;;;;6028597;23;20479;-78
2024/02/25 09:35:02;;;;;;;2.92;2.13;;;6.00;99.90;;;;;;6029225;23;20122;-80
2024/02/25 09:37:51;;;;;;;2.38;1.65;;;5.90;99.90;;;;;;6008334;23;20023;-79
2024/02/25 09:40:39;;;;;;;3.58;2.40;;;6.10;99.90;;;;;;6030168;23;20079;-79
2024/02/25 09:43:27;;;;;;;2.08;1.85;;;6.80;99.90;;;;;;6011062;23;20027;-79
2024/02/25 09:46:16;;;;;;;1.90;1.60;;;7.10;99.90;;;;;;6029720;23;20466;-77
2024/02/25 09:49:07;;;;;;;1.60;1.50;;;7.10;99.90;;;;;;6034233;23;20091;-81
2024/02/25 09:51:59;;;;;;;2.65;1.52;;;7.30;99.90;;;;;;6039451;23;20031;-76
2024/02/25 09:54:47;;;;;;;2.28;1.50;;;7.90;99.90;;;;;;6023495;23;20471;-81
2024/02/25 09:57:34;;;;;;;1.88;1.48;;;8.60;99.90;;;;;;6035157;23;20399;-77
2024/02/25 10:00:23;;;;;;;1.63;1.25;;;9.20;99.90;;;;;;6044747;23;20102;-79
2024/02/25 10:03:12;;;;;;;3.13;1.50;;;9.30;99.90;;;;;;6037518;23;20031;-80
2024/02/25 10:06:03;;;;;;;2.05;1.23;;;9.30;99.90;;;;;;6037888;23;20060;-81
2024/02/25 10:08:51;;;;;;;1.95;1.40;;;9.50;99.90;;;;;;6040976;23;20027;-80
2024/02/25 10:11:42;;;;;;;1.13;1.08;;;9.60;99.90;;;;;;6069273;23;20055;-79
2024/02/25 10:14:34;;;;;;;1.35;1.13;;;9.80;99.90;;;;;;6069579;23;20086;-79
2024/02/25 10:17:27;;;;;;;2.42;1.33;;;9.80;99.90;;;;;;6063404;23;20493;-81
2024/02/25 10:20:15;;;;;;;1.70;1.10;;;10.20;99.90;;;;;;6059375;23;20023;-79
2024/02/25 10:23:07;;;;;;;1.10;1.00;;;10.40;99.90;;;;;;6059147;23;20035;-81
2024/02/25 10:26:14;;;;;;;1.85;1.00;;;10.40;99.90;;;;;;6059179;23;20051;-77
2024/02/25 10:29:06;;;;;;;1.08;0.90;;;10.60;99.90;;;;;;6061283;23;20038;-81
2024/02/25 10:31:58;;;;;;;1.40;1.02;;;10.70;99.80;;;;;;6063381;23;20343;-80
2024/02/25 10:34:46;;;;;;;1.08;0.90;;;11.60;94.60;;;;;;6060297;23;20023;-78
2024/02/25 10:37:34;;;;;;;2.60;0.90;;;11.60;81.10;;;;;;6064794;23;20051;-80
2024/02/25 10:40:33;;;;;;;1.70;0.98;;;11.50;70.30;;;;;;6067880;23;20114;-78
2024/02/25 10:43:29;;;;;;;1.50;1.10;;;11.50;61.80;;;;;;6060406;23;20088;-78
2024/02/25 10:46:28;;;;;;;1.20;0.85;;;11.20;54.90;;;;;;6066323;23;20035;-81
2024/02/25 10:49:26;;;;;;;1.73;1.10;;;10.70;51.00;;;;;;6059725;23;20027;-80
2024/02/25 10:52:14;;;;;;;2.72;1.42;;;10.30;46.00;;;;;;6061700;23;20030;-79
2024/02/25 10:55:02;;;;;;;2.05;1.33;;;10.80;48.50;;;;;;6066836;23;20094;-78
2024/02/25 10:57:52;;;;;;;74.53;25.08;;;11.50;46.40;;;;;;6060292;23;20033;-78
2024/02/25 11:00:42;;;;;;;3.50;1.63;;;11.90;45.00;;;;;;6065151;23;20044;-75
2024/02/25 11:03:37;;;;;;;2.67;1.65;;;11.50;36.50;;;;;;6049298;23;20042;-78
2024/02/25 11:06:33;;;;;;;1.58;1.25;;;10.80;37.60;;;;;;6033955;23;20038;-77
2024/02/25 11:09:24;;;;;;;6.15;2.25;;;10.80;42.30;;;;;;6069165;23;20041;-78
2024/02/25 11:12:22;;;;;;;2.30;1.52;;;11.10;38.80;;;;;;6068354;23;20115;-80
2024/02/25 11:15:27;;;;;;;6.68;2.97;;;11.60;41.50;;;;;;6062237;23;20033;-77
2024/02/25 11:18:29;;;;;;;139.07;45.88;;;11.80;36.20;;;;;;6068848;23;20027;-77
2024/02/25 11:21:19;;;;;;;5.40;2.60;;;12.40;36.10;;;;;;6062493;23;20027;-79
2024/02/25 11:24:12;;;;;;;7.63;1.58;;;13.10;28.70;;;;;;6052303;23;20031;-80
2024/02/25 11:27:01;;;;;;;2.22;1.35;;;12.70;21.60;;;;;;6062717;23;20026;-79
2024/02/25 11:30:15;;;;;;;3.67;1.70;;;11.90;16.20;;;;;;6070051;23;20082;-78
2024/02/25 11:33:44;;;;;;;19.40;5.63;;;11.90;19.30;;;;;;6045612;23;20027;-80
2024/02/25 11:36:40;;;;;;;2.10;1.30;;;12.10;19.10;;;;;;6075631;23;20031;-77
2024/02/25 11:39:39;;;;;;;2.05;1.55;;;11.60;15.10;;;;;;6071692;23;20036;-79
2024/02/25 11:42:26;;;;;;;1.15;1.10;;;11.40;12.30;;;;;;6073769;23;20720;-78
2024/02/25 11:45:14;;;;;;;1.10;1.00;;;11.40;11.60;;;;;;6064214;23;20057;-78
2024/02/25 11:48:02;;;;;;;1.98;0.80;;;11.60;10.50;;;;;;6058360;23;20130;-80
2024/02/25 11:50:51;;;;;;;0.95;0.80;;;11.90;5.50;;;;;;6063566;23;20023;-80
2024/02/25 11:53:38;;;;;;;1.85;0.70;;;12.50;5.10;;;;;;6057083;23;20524;-80
2024/02/25 11:56:26;;;;;;;0.82;0.82;;;13.10;1.00;;;;;;6036843;23;20027;-79
2024/02/25 11:59:16;;;;;;;0.98;0.82;;;12.40;1.00;;;;;;6056643;23;20034;-75
2024/02/25 12:02:05;;;;;;;0.52;0.52;;;12.40;1.00;;;;;;6057910;23;20098;-78
2024/02/25 12:04:57;;;;;;;1.00;0.90;;;12.00;1.00;;;;;;6056560;23;20466;-79
2024/02/25 12:08:14;;;;;;;1.08;0.93;;;11.90;1.00;;;;;;6056014;23;20022;-80
2024/02/25 12:11:02;;;;;;;0.93;0.85;;;11.90;1.00;;;;;;6054400;23;20042;-79
2024/02/25 12:14:00;;;;;;;0.65;0.65;;;11.50;1.00;;;;;;6056920;23;20109;-78
2024/02/25 12:16:50;;;;;;;0.75;0.75;;;11.80;1.00;;;;;;6057913;23;20092;-79
2024/02/25 12:19:42;;;;;;;2.72;1.15;;;12.10;1.00;;;;;;6059751;23;20030;-79
2024/02/25 12:22:33;;;;;;;1.10;0.70;;;12.40;1.00;;;;;;6037077;23;20087;-79
2024/02/25 12:25:20;;;;;;;0.63;0.63;;;12.70;1.00;;;;;;6052074;23;20454;-80
2024/02/25 12:28:13;;;;;;;0.60;0.60;;;12.80;1.00;;;;;;6076703;23;20376;-77
2024/02/25 12:31:05;;;;;;;1.33;1.23;;;12.50;1.00;;;;;;6090140;23;20018;-75
2024/02/25 12:33:52;;;;;;;3.40;1.13;;;12.90;1.00;;;;;;6079408;23;20045;-75
2024/02/25 12:36:47;;;;;;;1.17;0.85;;;13.30;1.00;;;;;;6081444;23;20031;-76
2024/02/25 12:39:40;;;;;;;0.75;0.75;;;13.90;1.00;;;;;;6078403;23;20037;-77
2024/02/25 12:42:30;;;;;;;0.70;0.68;;;14.50;1.00;;;;;;6065906;23;20022;-79
2024/02/25 12:45:19;;;;;;;0.85;0.70;;;14.70;1.00;;;;;;6054656;23;20423;-75
2024/02/25 12:48:07;;;;;;;1.73;0.70;;;15.10;1.00;;;;;;6068656;23;20101;-77
2024/02/25 12:50:55;;;;;;;0.60;0.60;;;13.50;1.00;;;;;;6061682;23;20027;-80
2024/02/25 12:53:47;;;;;;;0.50;0.50;;;13.50;1.00;;;;;;6021230;23;20054;-80
2024/02/25 12:56:36;;;;;;;0.60;0.52;;;13.90;1.00;;;;;;6059204;23;20034;-80
2024/02/25 12:59:28;;;;;;;1.33;0.73;;;14.30;1.00;;;;;;6059060;23;20022;-78
2024/02/25 13:02:25;;;;;;;0.80;0.70;;;15.20;1.00;;;;;;6060744;23;20034;-79
2024/02/25 13:05:12;;;;;;;1.83;0.70;;;14.80;1.00;;;;;;6071657;23;20033;-80
2024/02/25 13:08:00;;;;;;;0.98;0.50;;;15.80;1.00;;;;;;6057610;23;20090;-77
2024/02/25 13:10:47;;;;;;;0.65;0.65;;;15.70;1.00;;;;;;6058493;23;20050;-78
2024/02/25 13:13:35;;;;;;;1.70;0.70;;;15.40;1.00;;;;;;6053931;23;20031;-77
2024/02/25 13:16:33;;;;;;;1.52;0.63;;;15.30;1.00;;;;;;6054385;23;20366;-78
2024/02/25 13:19:21;;;;;;;0.80;0.60;;;15.20;1.00;;;;;;6057054;23;20350;-79
2024/02/25 13:22:09;;;;;;;0.75;0.50;;;15.90;1.00;;;;;;6062430;23;20105;-78
2024/02/25 13:24:56;;;;;;;1.92;0.70;;;15.70;1.00;;;;;;6058968;23;20062;-79
2024/02/25 13:27:49;;;;;;;0.70;0.70;;;15.90;1.00;;;;;;6042661;23;20031;-79
2024/02/25 13:30:37;;;;;;;1.38;0.57;;;16.20;1.00;;;;;;6064319;23;20034;-76
2024/02/25 13:33:27;;;;;;;0.85;0.52;;;16.60;1.00;;;;;;6065315;23;20031;-78
2024/02/25 13:36:15;;;;;;;0.75;0.70;;;16.10;1.00;;;;;;6036995;23;20034;-78
2024/02/25 13:39:03;;;;;;;0.90;0.68;;;16.00;1.00;;;;;;6069683;23;20035;-80
2024/02/25 13:41:51;;;;;;;1.13;0.70;;;15.90;1.00;;;;;;6059865;23;20023;-77
2024/02/25 13:44:39;;;;;;;1.05;0.80;;;15.90;1.00;;;;;;6058626;23;20079;-77
2024/02/25 13:47:29;;;;;;;0.52;0.52;;;16.50;1.00;;;;;;6060219;23;20030;-80
2024/02/25 13:50:22;;;;;;;1.15;0.57;;;16.50;1.00;;;;;;6057940;23;20375;-80
2024/02/25 13:53:12;;;;;;;0.77;0.63;;;16.90;1.00;;;;;;6057239;23;20058;-81
2024/02/25 13:56:05;;;;;;;2.08;0.70;;;17.50;1.00;;;;;;6057132;23;20023;-79
2024/02/25 13:58:56;;;;;;;0.50;0.50;;;17.60;1.00;;;;;;6054797;23;20095;-77
2024/02/25 14:01:45;;;;;;;0.60;0.50;;;17.10;1.00;;;;;;6035207;23;20039;-80
2024/02/25 14:04:33;;;;;;;0.77;0.77;;;16.80;1.00;;;;;;6033638;23;20026;-79
2024/02/25 14:07:33;;;;;;;1.83;0.70;;;17.20;1.00;;;;;;6035245;23;20109;-81
2024/02/25 14:10:22;;;;;;;1.88;0.47;;;17.10;1.00;;;;;;6040522;23;20030;-77
2024/02/25 14:13:10;;;;;;;1.02;0.65;;;18.60;1.00;;;;;;6056689;23;20678;-80
2024/02/25 14:15:57;;;;;;;0.93;0.60;;;18.90;1.00;;;;;;6064699;23;20102;-74
2024/02/25 14:18:44;;;;;;;0.85;0.60;;;19.10;1.00;;;;;;6047510;23;20027;-78
2024/02/25 14:21:35;;;;;;;0.57;0.57;;;18.30;1.00;;;;;;6048793;23;20026;-78
2024/02/25 14:24:25;;;;;;;0.70;0.60;;;17.70;1.00;;;;;;6065943;23;20030;-77
2024/02/25 14:27:12;;;;;;;0.55;0.50;;;17.20;1.00;;;;;;6066989;23;20061;-79
2024/02/25 14:30:00;;;;;;;0.73;0.57;;;16.50;1.00;;;;;;6057649;23;20253;-80
2024/02/25 14:32:48;;;;;;;3.58;0.60;;;16.40;1.00;;;;;;6054551;23;20041;-79
2024/02/25 14:35:35;;;;;;;0.85;0.60;;;16.50;1.00;;;;;;6054989;23;20031;-79
2024/02/25 14:38:23;;;;;;;0.63;0.55;;;16.60;1.00;;;;;;6054649;23;20047;-78
2024/02/25 14:41:12;;;;;;;0.50;0.50;;;16.60;1.00;;;;;;6054968;23;20034;-80
2024/02/25 14:43:59;;;;;;;1.08;0.60;;;16.30;1.00;;;;;;6055777;23;20064;-80
2024/02/25 14:46:47;;;;;;;0.73;0.50;;;16.30;1.00;;;;;;6055839;23;20031;-81
2024/02/25 14:49:34;;;;;;;1.02;0.80;;;17.50;1.00;;;;;;6056110;23;20130;-79
2024/02/25 14:52:23;;;;;;;1.88;0.90;;;17.50;1.00;;;;;;6033416;23;20567;-78
2024/02/25 14:55:10;;;;;;;1.08;0.55;;;17.00;1.00;;;;;;6061288;23;20041;-77